createdAt,value
2022-11-24T00:01:07.966Z,99643.28
2022-11-24T00:03:35.270Z,99642.53
2022-11-24T00:06:11.020Z,99641.84
2022-11-24T00:08:39.851Z,99645.72
2022-11-24T00:11:15.532Z,99638.53
2022-11-24T00:13:44.176Z,99642.59
2022-11-24T00:16:17.884Z,99630.19
2022-11-24T00:18:47.635Z,99640.53
2022-11-24T00:21:16.108Z,99650.56
2022-11-24T00:26:12.189Z,99658.47
2022-11-24T00:28:40.515Z,99662.06
2022-11-24T00:31:21.090Z,99667.53
2022-11-24T00:33:50.042Z,99673.50
2022-11-24T00:36:18.715Z,99673.19
2022-11-24T00:38:45.794Z,99672.81
2022-11-24T00:41:13.601Z,99674.66
2022-11-24T00:43:40.736Z,99670.31
2022-11-24T00:46:07.809Z,99669.16
2022-11-24T00:48:35.166Z,99680.00
2022-11-24T00:51:05.534Z,99680.03
2022-11-24T00:53:32.633Z,99661.72
2022-11-24T00:55:59.643Z,99686.25
2022-11-24T00:58:26.872Z,99682.25
2022-11-24T01:00:53.875Z,99687.84
2022-11-24T01:03:21.459Z,99697.88
2022-11-24T01:05:48.713Z,99681.59
2022-11-24T01:08:15.705Z,99687.78
2022-11-24T01:10:42.744Z,99689.75
2022-11-24T01:13:09.871Z,99695.63
2022-11-24T01:15:36.926Z,99694.41
2022-11-24T01:18:04.815Z,99701.25
2022-11-24T01:20:32.692Z,99706.34
2022-11-24T01:23:18.547Z,99705.28
2022-11-24T01:25:45.509Z,99710.22
2022-11-24T01:28:12.481Z,99705.09
2022-11-24T01:30:39.486Z,99699.53
2022-11-24T01:33:06.514Z,99712.06
2022-11-24T01:35:33.499Z,99719.22
2022-11-24T01:38:00.449Z,99720.91
2022-11-24T01:40:27.406Z,99706.66
2022-11-24T01:42:54.447Z,99711.81
2022-11-24T01:45:33.088Z,99714.41
2022-11-24T01:48:04.575Z,99707.94
2022-11-24T01:50:32.932Z,99717.56
2022-11-24T01:53:00.080Z,99722.19
2022-11-24T01:55:32.571Z,99723.09
2022-11-24T01:58:24.260Z,99730.09
2022-11-24T02:00:52.196Z,99719.88
2022-11-24T02:03:25.782Z,99723.25
2022-11-24T02:06:01.714Z,99732.53
2022-11-24T02:08:51.254Z,99728.09
2022-11-24T02:11:20.503Z,99741.16
2022-11-24T02:13:48.938Z,99740.16
2022-11-24T02:16:15.954Z,99740.13
2022-11-24T02:18:43.968Z,99752.28
2022-11-24T02:21:13.798Z,99749.47
2022-11-24T02:24:28.148Z,99754.00
2022-11-24T02:26:55.234Z,99754.13
2022-11-24T02:29:22.464Z,99766.31
2022-11-24T02:31:55.237Z,99768.84
2022-11-24T02:34:22.212Z,99775.19
2022-11-24T02:36:49.224Z,99765.84
2022-11-24T02:39:16.783Z,99766.50
2022-11-24T02:41:49.995Z,99777.28
2022-11-24T02:44:20.175Z,99786.53
2022-11-24T02:46:47.137Z,99778.34
2022-11-24T02:49:14.080Z,99774.03
2022-11-24T02:51:41.022Z,99782.13
2022-11-24T02:54:08.066Z,99771.84
2022-11-24T02:56:35.100Z,99776.03
2022-11-24T02:59:02.072Z,99761.66
2022-11-24T03:01:29.101Z,99770.69
2022-11-24T03:03:56.181Z,99769.19
2022-11-24T03:06:23.138Z,99777.88
2022-11-24T03:08:50.218Z,99779.09
2022-11-24T03:11:17.165Z,99774.72
2022-11-24T03:13:46.416Z,99783.38
2022-11-24T03:16:13.462Z,99787.94
2022-11-24T03:18:40.465Z,99782.28
2022-11-24T03:21:07.478Z,99785.34
2022-11-24T03:23:34.489Z,99789.44
2022-11-24T03:26:09.235Z,99793.53
2022-11-24T03:28:36.322Z,99794.75
2022-11-24T03:31:03.842Z,99795.97
2022-11-24T03:33:30.943Z,99798.03
2022-11-24T03:35:58.296Z,99796.88
2022-11-24T03:38:25.383Z,99800.53
2022-11-24T03:40:52.565Z,99802.22
2022-11-24T03:43:19.783Z,99799.22
2022-11-24T03:45:48.043Z,99800.72
2022-11-24T03:48:16.769Z,99808.22
2022-11-24T03:50:52.081Z,99807.22
2022-11-24T03:53:19.050Z,99816.88
2022-11-24T03:55:46.062Z,99798.03
2022-11-24T03:58:13.030Z,99823.19
2022-11-24T04:00:40.199Z,99817.38
2022-11-24T04:03:07.284Z,99808.88
2022-11-24T04:05:36.434Z,99790.06
2022-11-24T04:08:05.463Z,99817.72
2022-11-24T04:10:35.935Z,99809.88
2022-11-24T04:13:04.494Z,99821.72
2022-11-24T04:15:31.479Z,99819.78
2022-11-24T04:17:58.456Z,99819.47
2022-11-24T04:20:25.476Z,99823.69
2022-11-24T04:22:52.504Z,99827.22
2022-11-24T04:25:19.690Z,99822.22
2022-11-24T04:27:51.767Z,99830.81
2022-11-24T04:30:19.735Z,99832.22
2022-11-24T04:32:47.146Z,99831.38
2022-11-24T04:35:14.434Z,99821.41
2022-11-24T04:37:41.992Z,99816.25
2022-11-24T04:40:10.746Z,99837.56
2022-11-24T04:42:38.265Z,99840.41
2022-11-24T04:45:07.885Z,99837.22
2022-11-24T04:47:35.170Z,99843.16
2022-11-24T04:50:02.227Z,99853.22
2022-11-24T04:52:30.200Z,99845.59
2022-11-24T04:54:57.232Z,99846.47
2022-11-24T04:57:26.323Z,99845.97
2022-11-24T04:59:54.283Z,99849.53
2022-11-24T05:02:21.817Z,99857.41
2022-11-24T05:04:49.040Z,99856.63
2022-11-24T05:07:19.182Z,99863.81
2022-11-24T05:10:06.034Z,99875.28
2022-11-24T05:12:33.126Z,99865.00
2022-11-24T05:15:05.117Z,99876.09
2022-11-24T05:17:34.645Z,99882.13
2022-11-24T05:20:02.471Z,99876.59
2022-11-24T05:22:31.712Z,99882.84
2022-11-24T05:24:58.809Z,99893.66
2022-11-24T05:27:25.811Z,99898.28
2022-11-24T05:29:52.781Z,99901.13
2022-11-24T05:32:20.294Z,99883.47
2022-11-24T05:34:48.008Z,99904.91
2022-11-24T05:37:15.014Z,99907.94
2022-11-24T05:39:42.001Z,99922.56
2022-11-24T05:42:28.939Z,99916.44
2022-11-24T05:44:55.962Z,99920.75
2022-11-24T05:47:23.201Z,99929.50
2022-11-24T05:49:50.192Z,99929.19
2022-11-24T05:52:17.306Z,99930.97
2022-11-24T05:54:44.476Z,99939.75
2022-11-24T05:57:11.437Z,99940.34
2022-11-24T05:59:38.430Z,99951.28
2022-11-24T06:02:05.544Z,99945.13
2022-11-24T06:04:33.111Z,99954.06
2022-11-24T06:07:00.289Z,99924.59
2022-11-24T06:09:28.077Z,99953.44
2022-11-24T06:11:55.612Z,99959.59
2022-11-24T06:14:22.666Z,99958.13
2022-11-24T06:16:49.748Z,99965.47
2022-11-24T06:19:16.760Z,99962.28
2022-11-24T06:21:43.776Z,99967.56
2022-11-24T06:24:10.871Z,99972.53
2022-11-24T06:26:37.875Z,99975.59
2022-11-24T06:29:05.114Z,99975.03
2022-11-24T06:31:32.603Z,99981.78
2022-11-24T06:34:00.816Z,99981.34
2022-11-24T06:36:28.008Z,99987.88
2022-11-24T06:38:54.979Z,99979.53
2022-11-24T06:41:21.991Z,99987.78
2022-11-24T06:43:50.330Z,99990.59
2022-11-24T06:46:18.015Z,99993.97
2022-11-24T06:48:45.065Z,99992.63
2022-11-24T06:51:13.931Z,99997.03
2022-11-24T06:53:41.615Z,99992.19
2022-11-24T06:56:16.797Z,99998.47
2022-11-24T06:58:46.413Z,99991.88
2022-11-24T07:01:28.335Z,99984.16
2022-11-24T07:03:57.023Z,100009.69
2022-11-24T07:06:25.833Z,100012.44
2022-11-24T07:08:53.178Z,100009.31
2022-11-24T07:11:23.506Z,100004.72
2022-11-24T07:13:58.304Z,100007.03
2022-11-24T07:16:28.250Z,99999.34
2022-11-24T07:18:55.617Z,99996.34
2022-11-24T07:21:25.087Z,100010.03
2022-11-24T07:23:53.648Z,100006.00
2022-11-24T07:26:21.739Z,100002.38
2022-11-24T07:28:48.881Z,100009.88
2022-11-24T07:31:19.044Z,100002.25
2022-11-24T07:33:55.164Z,100010.44
2022-11-24T07:36:23.226Z,100014.78
2022-11-24T07:38:50.786Z,100007.44
2022-11-24T07:41:19.779Z,99996.78
2022-11-24T07:43:47.928Z,99999.63
2022-11-24T07:46:17.459Z,99982.31
2022-11-24T07:48:45.382Z,99999.91
2022-11-24T07:51:12.764Z,99986.56
2022-11-24T07:53:40.093Z,100000.44
2022-11-24T07:56:07.720Z,99998.31
2022-11-24T07:58:36.956Z,100011.84
2022-11-24T08:01:30.430Z,100022.25
2022-11-24T08:03:57.556Z,99995.94
2022-11-24T08:06:28.576Z,100010.25
2022-11-24T08:08:56.588Z,99990.59
2022-11-24T08:11:24.214Z,100018.06
2022-11-24T08:13:51.316Z,100021.41
2022-11-24T08:16:20.605Z,100016.34
2022-11-24T08:18:52.879Z,100004.28
2022-11-24T08:21:20.499Z,100030.25
2022-11-24T08:23:48.009Z,100029.34
2022-11-24T08:26:18.082Z,100028.13
2022-11-24T08:28:46.828Z,100024.28
2022-11-24T08:31:16.812Z,100044.44
2022-11-24T08:33:43.844Z,100049.78
2022-11-24T08:36:13.439Z,100059.28
2022-11-24T08:38:40.672Z,100053.91
2022-11-24T08:41:10.961Z,100063.91
2022-11-24T08:43:38.618Z,100071.25
2022-11-24T08:46:08.538Z,100066.38
2022-11-24T08:48:35.950Z,100054.59
2022-11-24T08:51:23.628Z,100054.44
2022-11-24T08:53:54.893Z,100074.16
2022-11-24T08:56:21.866Z,100082.09
2022-11-24T08:58:49.087Z,100074.31
2022-11-24T09:01:17.915Z,100085.91
2022-11-24T09:03:50.616Z,100080.53
2022-11-24T09:06:31.029Z,100093.25
2022-11-24T09:08:59.887Z,100083.25
2022-11-24T09:11:27.588Z,100094.13
2022-11-24T09:13:55.699Z,100104.28
2022-11-24T09:16:26.378Z,100102.19
2022-11-24T09:19:05.822Z,100107.50
2022-11-24T09:21:34.446Z,100091.75
2022-11-24T09:24:06.087Z,100103.47
2022-11-24T09:26:36.163Z,100097.47
2022-11-24T09:29:05.348Z,100102.75
2022-11-24T09:31:34.540Z,100100.19
2022-11-24T09:34:03.448Z,100105.63
2022-11-24T09:36:31.983Z,100104.13
2022-11-24T09:38:59.721Z,100100.50
2022-11-24T09:42:03.228Z,100104.25
2022-11-24T09:45:01.343Z,100093.56
2022-11-24T09:47:57.306Z,100096.16
2022-11-24T09:50:35.623Z,100103.72
2022-11-24T09:53:22.830Z,100106.28
2022-11-24T09:55:51.955Z,100104.50
2022-11-24T09:58:30.379Z,100104.75
2022-11-24T10:00:58.780Z,100109.31
2022-11-24T10:03:41.943Z,100086.19
2022-11-24T10:06:31.884Z,100101.94
2022-11-24T10:09:11.572Z,100102.63
2022-11-24T10:11:49.932Z,100107.56
2022-11-24T10:14:26.062Z,100099.28
2022-11-24T10:17:17.938Z,100115.59
2022-11-24T10:20:03.095Z,100101.38
2022-11-24T10:22:42.600Z,100116.88
2022-11-24T10:25:39.308Z,100112.91
2022-11-24T10:28:13.545Z,100116.56
2022-11-24T10:30:40.964Z,100114.66
2022-11-24T10:33:25.538Z,100122.22
2022-11-24T10:36:06.657Z,100124.47
2022-11-24T10:38:51.771Z,100125.63
2022-11-24T10:41:50.194Z,100124.38
2022-11-24T10:44:17.160Z,100118.88
2022-11-24T10:46:44.598Z,100114.47
2022-11-24T10:49:32.266Z,100127.19
2022-11-24T10:52:07.236Z,100117.94
2022-11-24T10:54:36.181Z,100126.41
2022-11-24T10:57:04.007Z,100126.53
2022-11-24T10:59:36.155Z,100123.78
2022-11-24T11:02:33.983Z,100125.38
2022-11-24T11:05:35.412Z,100127.31
2022-11-24T11:08:14.401Z,100137.84
2022-11-24T11:10:45.193Z,100134.69
2022-11-24T11:13:26.397Z,100139.84
2022-11-24T11:15:54.633Z,100134.22
2022-11-24T11:18:23.076Z,100139.06
2022-11-24T11:20:56.158Z,100139.84
2022-11-24T11:23:29.183Z,100136.03
2022-11-24T11:26:18.014Z,100145.41
2022-11-24T11:35:12.597Z,100140.50
2022-11-24T11:37:40.470Z,100140.03
2022-11-24T11:40:16.503Z,100138.75
2022-11-24T11:43:13.211Z,100149.28
2022-11-24T11:45:46.764Z,100136.53
2022-11-24T11:48:46.410Z,100153.59
2022-11-24T11:51:47.485Z,100148.13
2022-11-24T11:54:53.973Z,100154.84
2022-11-24T11:57:35.051Z,100159.31
2022-11-24T12:00:12.389Z,100162.56
2022-11-24T12:03:13.133Z,100161.66
2022-11-24T12:06:08.052Z,100145.59
2022-11-24T12:09:18.594Z,100150.56
2022-11-24T12:11:52.000Z,100164.13
2022-11-24T12:14:31.458Z,100172.84
2022-11-24T12:17:10.491Z,100185.63
2022-11-24T12:19:58.764Z,100174.63
2022-11-24T12:23:11.335Z,100170.56
2022-11-24T12:25:47.958Z,100159.97
2022-11-24T12:28:20.999Z,100178.41
2022-11-24T12:31:03.257Z,100167.00
2022-11-24T12:34:01.200Z,100159.66
2022-11-24T12:36:37.552Z,100157.41
2022-11-24T12:39:19.812Z,100164.06
2022-11-24T12:42:15.523Z,100174.97
2022-11-24T12:45:02.369Z,100184.38
2022-11-24T12:47:48.585Z,100177.88
2022-11-24T12:50:26.624Z,100175.50
2022-11-24T12:53:00.940Z,100201.53
2022-11-24T12:55:30.116Z,100199.19
2022-11-24T12:58:11.475Z,100198.50
2022-11-24T13:01:10.333Z,100212.69
2022-11-24T13:04:01.103Z,100204.69
2022-11-24T13:06:49.915Z,100213.34
2022-11-24T13:09:17.221Z,100214.75
2022-11-24T13:11:44.335Z,100207.88
2022-11-24T13:14:28.458Z,100218.28
2022-11-24T13:19:51.559Z,100230.03
2022-11-24T13:22:24.233Z,100231.34
2022-11-24T13:25:29.090Z,100227.59
2022-11-24T13:28:01.092Z,100229.22
2022-11-24T13:30:34.271Z,100232.31
2022-11-24T13:33:16.804Z,100235.97
2022-11-24T13:36:25.508Z,100244.03
2022-11-24T13:38:53.848Z,100240.72
2022-11-24T13:41:33.077Z,100250.63
2022-11-24T13:44:15.380Z,100248.53
2022-11-24T13:47:26.570Z,100254.81
2022-11-24T13:49:53.753Z,100263.25
2022-11-24T13:52:38.916Z,100273.78
2022-11-24T13:55:12.533Z,100266.00
2022-11-24T13:57:48.639Z,100262.72
2022-11-24T14:00:27.055Z,100273.66
2022-11-24T14:02:59.670Z,100273.41
2022-11-24T14:05:39.763Z,100283.28
2022-11-24T14:08:16.529Z,100272.84
2022-11-24T14:10:43.753Z,100276.78
2022-11-24T14:13:23.227Z,100282.41
2022-11-24T14:16:23.782Z,100290.31
2022-11-24T14:18:52.230Z,100290.22
2022-11-24T14:21:30.271Z,100293.72
2022-11-24T14:24:00.655Z,100297.84
2022-11-24T14:26:36.350Z,100293.53
2022-11-24T14:29:16.203Z,100298.72
2022-11-24T14:31:51.981Z,100307.47
2022-11-24T14:34:21.315Z,100307.69
2022-11-24T14:36:50.238Z,100302.78
2022-11-24T14:39:19.905Z,100314.78
2022-11-24T14:41:51.718Z,100306.59
2022-11-24T14:44:40.117Z,100314.97
2022-11-24T14:47:15.250Z,100297.84
2022-11-24T14:49:43.286Z,100309.50
2022-11-24T14:52:16.546Z,100310.09
2022-11-24T14:54:52.262Z,100302.97
2022-11-24T14:57:37.274Z,100308.44
2022-11-24T15:00:13.220Z,100306.25
2022-11-24T15:02:48.414Z,100317.16
2022-11-24T15:05:16.699Z,100321.63
2022-11-24T15:07:48.200Z,100328.38
2022-11-24T15:10:33.473Z,100331.59
2022-11-24T15:13:03.691Z,100334.81
2022-11-24T15:15:40.112Z,100334.03
2022-11-24T15:18:25.883Z,100336.78
2022-11-24T15:20:53.566Z,100329.31
2022-11-24T15:23:31.410Z,100337.56
2022-11-24T15:26:01.411Z,100330.69
2022-11-24T15:28:30.336Z,100330.72
2022-11-24T15:31:01.875Z,100326.13
2022-11-24T15:33:29.658Z,100330.28
2022-11-24T15:35:57.329Z,100336.28
2022-11-24T15:38:24.448Z,100340.75
2022-11-24T15:40:53.861Z,100332.41
2022-11-24T15:43:34.618Z,100340.31
2022-11-24T15:46:03.664Z,100338.28
2022-11-24T15:48:31.085Z,100334.44
2022-11-24T15:51:01.690Z,100338.34
2022-11-24T15:53:28.652Z,100348.75
2022-11-24T15:55:57.181Z,100350.28
2022-11-24T15:58:24.580Z,100345.00
2022-11-24T16:00:53.712Z,100349.47
2022-11-24T16:06:23.752Z,100366.13
2022-11-24T16:08:51.581Z,100361.94
2022-11-24T16:11:18.578Z,100355.22
2022-11-24T16:13:51.574Z,100356.84
2022-11-24T16:16:21.053Z,100361.94
2022-11-24T16:18:48.420Z,100355.06
2022-11-24T16:21:16.870Z,100366.53
2022-11-24T16:23:44.049Z,100359.28
2022-11-24T16:26:11.051Z,100359.63
2022-11-24T16:28:38.065Z,100353.53
2022-11-24T16:31:05.308Z,100358.44
2022-11-24T16:33:32.523Z,100359.13
2022-11-24T16:35:59.482Z,100370.09
2022-11-24T16:38:27.599Z,100367.03
2022-11-24T16:40:58.571Z,100368.66
2022-11-24T16:43:25.609Z,100370.56
2022-11-24T16:46:21.281Z,100383.13
2022-11-24T16:48:51.010Z,100379.41
2022-11-24T16:51:19.927Z,100380.16
2022-11-24T16:53:47.194Z,100379.78
2022-11-24T16:56:17.627Z,100379.38
2022-11-24T16:58:44.701Z,100384.00
2022-11-24T17:01:13.538Z,100385.84
2022-11-24T17:03:41.002Z,100384.91
2022-11-24T17:06:11.599Z,100393.97
2022-11-24T17:08:41.075Z,100387.25
2022-11-24T17:11:16.031Z,100383.38
2022-11-24T17:13:45.545Z,100387.63
2022-11-24T17:16:18.027Z,100394.16
2022-11-24T17:18:45.934Z,100399.22
2022-11-24T17:21:21.851Z,100397.75
2022-11-24T17:23:55.556Z,100397.94
2022-11-24T17:26:22.836Z,100390.03
2022-11-24T17:28:49.869Z,100387.53
2022-11-24T17:31:25.886Z,100397.03
2022-11-24T17:33:54.869Z,100399.44
2022-11-24T17:36:22.615Z,100401.41
2022-11-24T17:38:50.064Z,100399.53
2022-11-24T17:41:18.436Z,100402.75
2022-11-24T17:43:51.191Z,100406.84
2022-11-24T17:46:18.762Z,100409.88
2022-11-24T17:48:47.033Z,100411.00
2022-11-24T17:51:17.123Z,100394.63
2022-11-24T17:53:46.550Z,100415.19
2022-11-24T17:56:19.247Z,100403.16
2022-11-24T17:58:46.362Z,100401.06
2022-11-24T18:01:13.637Z,100414.25
2022-11-24T18:03:41.717Z,100416.69
2022-11-24T18:06:11.556Z,100412.31
2022-11-24T18:08:41.290Z,100416.91
2022-11-24T18:11:14.170Z,100415.06
2022-11-24T18:13:58.390Z,100414.00
2022-11-24T18:16:28.400Z,100422.28
2022-11-24T18:19:07.825Z,100417.44
2022-11-24T18:21:40.665Z,100420.63
2022-11-24T18:24:11.966Z,100431.72
2022-11-24T18:26:40.338Z,100426.66
2022-11-24T18:29:08.012Z,100431.03
2022-11-24T18:31:35.905Z,100426.66
2022-11-24T18:34:05.388Z,100428.06
2022-11-24T18:36:33.373Z,100431.72
2022-11-24T18:39:02.012Z,100419.63
2022-11-24T18:41:29.090Z,100430.44
2022-11-24T18:43:56.236Z,100428.16
2022-11-24T18:46:23.288Z,100431.06
2022-11-24T18:48:52.072Z,100422.03
2022-11-24T18:51:19.178Z,100436.75
2022-11-24T18:53:46.693Z,100424.78
2022-11-24T18:56:17.576Z,100436.81
2022-11-24T18:58:44.712Z,100437.31
2022-11-24T19:01:17.001Z,100442.13
2022-11-24T19:03:49.047Z,100428.13
2022-11-24T19:06:17.670Z,100426.56
2022-11-24T19:08:45.309Z,100440.38
2022-11-24T19:11:20.271Z,100453.13
2022-11-24T19:13:48.850Z,100451.91
2022-11-24T19:16:17.445Z,100448.81
2022-11-24T19:18:50.226Z,100454.81
2022-11-24T19:21:20.063Z,100452.44
2022-11-24T19:23:47.131Z,100452.13
2022-11-24T19:26:15.517Z,100455.38
2022-11-24T19:28:43.925Z,100448.56
2022-11-24T19:31:13.636Z,100446.50
2022-11-24T19:33:41.501Z,100444.41
2022-11-24T19:36:12.416Z,100454.25
2022-11-24T19:38:39.501Z,100449.66
2022-11-24T19:41:12.468Z,100447.19
2022-11-24T19:43:40.641Z,100441.34
2022-11-24T19:46:13.310Z,100455.31
2022-11-24T19:48:51.210Z,100457.69
2022-11-24T19:51:20.981Z,100438.56
2022-11-24T19:53:49.406Z,100471.03
2022-11-24T19:56:21.688Z,100458.84
2022-11-24T19:58:50.176Z,100467.94
2022-11-24T20:01:26.460Z,100448.72
2022-11-24T20:03:58.717Z,100474.53
2022-11-24T20:06:28.006Z,100465.72
2022-11-24T20:08:58.713Z,100468.16
2022-11-24T20:11:25.789Z,100462.34
2022-11-24T20:13:54.691Z,100456.91
2022-11-24T20:16:28.279Z,100464.44
2022-11-24T20:18:57.775Z,100464.19
2022-11-24T20:21:33.123Z,100457.06
2022-11-24T20:24:07.025Z,100465.88
2022-11-24T20:26:37.055Z,100457.31
2022-11-24T20:29:04.935Z,100465.34
2022-11-24T20:31:35.565Z,100458.16
2022-11-24T20:34:04.577Z,100468.47
2022-11-24T20:36:34.144Z,100467.22
2022-11-24T20:39:04.270Z,100464.28
2022-11-24T20:41:34.651Z,100477.44
2022-11-24T20:44:05.111Z,100475.66
2022-11-24T20:46:33.772Z,100486.84
2022-11-24T20:49:01.313Z,100492.34
2022-11-24T20:51:31.080Z,100483.72
2022-11-24T20:54:01.064Z,100477.66
2022-11-24T20:56:31.212Z,100483.78
2022-11-24T20:58:58.745Z,100493.13
2022-11-24T21:01:28.873Z,100485.72
2022-11-24T21:03:58.465Z,100491.16
2022-11-24T21:06:28.004Z,100499.31
2022-11-24T21:09:00.473Z,100502.09
2022-11-24T21:11:30.913Z,100501.53
2022-11-24T21:13:57.914Z,100506.59
2022-11-24T21:16:29.742Z,100506.25
2022-11-24T21:18:59.021Z,100507.22
2022-11-24T21:21:33.553Z,100509.53
2022-11-24T21:24:06.173Z,100519.38
2022-11-24T21:26:37.145Z,100524.06
2022-11-24T21:29:04.905Z,100531.47
2022-11-24T21:31:36.813Z,100524.44
2022-11-24T21:34:07.713Z,100523.41
2022-11-24T21:36:35.993Z,100520.50
2022-11-24T21:39:04.302Z,100521.28
2022-11-24T21:41:34.037Z,100526.78
2022-11-24T21:44:01.606Z,100527.78
2022-11-24T21:46:39.027Z,100536.44
2022-11-24T21:49:09.446Z,100535.75
2022-11-24T21:51:36.544Z,100532.34
2022-11-24T21:54:03.579Z,100530.25
2022-11-24T21:56:30.583Z,100525.94
2022-11-24T21:58:58.203Z,100523.19
2022-11-24T22:01:28.208Z,100526.69
2022-11-24T22:04:03.764Z,100539.47
2022-11-24T22:06:32.097Z,100523.66
2022-11-24T22:08:59.076Z,100548.53
2022-11-24T22:11:27.039Z,100544.31
2022-11-24T22:13:54.067Z,100543.41
2022-11-24T22:16:24.944Z,100543.84
2022-11-24T22:18:52.197Z,100550.84
2022-11-24T22:21:30.750Z,100549.06
2022-11-24T22:23:57.789Z,100550.00
2022-11-24T22:26:26.203Z,100545.34
2022-11-24T22:28:57.229Z,100546.97
2022-11-24T22:31:25.398Z,100552.22
2022-11-24T22:33:53.760Z,100550.13
2022-11-24T22:36:24.737Z,100534.28
2022-11-24T22:38:55.811Z,100546.53
2022-11-24T22:41:23.517Z,100554.75
2022-11-24T22:43:51.309Z,100553.66
2022-11-24T22:46:21.351Z,100549.59
2022-11-24T22:48:52.855Z,100558.25
2022-11-24T22:51:22.116Z,100558.44
2022-11-24T22:53:54.808Z,100556.75
2022-11-24T22:56:22.455Z,100562.25
2022-11-24T22:58:50.873Z,100564.91
2022-11-24T23:01:23.799Z,100564.22
2022-11-24T23:03:54.363Z,100563.59
2022-11-24T23:06:29.887Z,100551.72
2022-11-24T23:08:58.495Z,100553.28
2022-11-24T23:11:33.822Z,100568.66
2022-11-24T23:14:05.790Z,100564.69
2022-11-24T23:16:32.954Z,100562.59
2022-11-24T23:18:59.978Z,100563.50
2022-11-24T23:21:32.276Z,100574.41
2022-11-24T23:24:02.064Z,100575.00
2022-11-24T23:26:32.129Z,100570.16
2022-11-24T23:28:59.230Z,100571.25
2022-11-24T23:31:28.859Z,100581.66
2022-11-24T23:33:58.561Z,100580.06
2022-11-24T23:36:27.960Z,100579.84
2022-11-24T23:38:55.495Z,100575.22
2022-11-24T23:41:25.265Z,100587.34
2022-11-24T23:43:54.484Z,100578.66
2022-11-24T23:46:30.344Z,100582.53
2022-11-24T23:48:57.479Z,100578.34
2022-11-24T23:51:32.596Z,100567.94
2022-11-24T23:54:01.998Z,100589.38
2022-11-24T23:56:34.049Z,100592.13
2022-11-24T23:59:02.403Z,100598.59
